Messwerte Wetterstation Muskau, Bad 127m (Sachsen)

Aktuelle Messwerte

Temperatur und Niederschlag
Taupunkt, Temperatur und Luftfeuchtigkeit

Anzeige

Datum Temperatur °C Niederschlag l/m² (10 min) Taupunkt °C Rel. Feuchte %
20.04 - 07:50 Uhr 5.8 0.0 3.7 86
20.04 - 07:40 Uhr 5.7 0.0 3.9 88
20.04 - 07:30 Uhr 5.6 0.0 4.2 91
20.04 - 07:20 Uhr 5.7 0.0 4.1 89
20.04 - 07:10 Uhr 5.7 0.0 4.3 91
20.04 - 07:00 Uhr 5.8 0.1 4.1 89
20.04 - 06:50 Uhr 6.1 0.0 4.2 88
20.04 - 06:40 Uhr 6.5 0.0 4.7 88
20.04 - 06:30 Uhr 6.5 0.0 4.9 89
20.04 - 06:20 Uhr 6.5 0.0 4.9 89
20.04 - 06:10 Uhr 6.4 0.0 4.9 90
20.04 - 06:00 Uhr 6.5 0.0 4.9 90
20.04 - 05:50 Uhr 6.5 0.0 4.8 89
20.04 - 05:40 Uhr 6.4 0.0 5.0 91
20.04 - 05:30 Uhr 6.4 0.0 4.9 90
20.04 - 05:20 Uhr 6.4 0.0 4.9 90
20.04 - 05:10 Uhr 6.3 0.0 4.9 91
20.04 - 05:00 Uhr 6.4 0.0 4.9 90
20.04 - 04:50 Uhr 6.3 0.0 4.9 91
20.04 - 04:40 Uhr 6.3 0.0 5.0 91
20.04 - 04:30 Uhr 6.3 0.0 5.1 92
20.04 - 04:20 Uhr 6.3 0.0 5.0 92
20.04 - 04:10 Uhr 6.3 0.0 4.9 91
20.04 - 04:00 Uhr 6.3 0.0 5.0 91
20.04 - 03:50 Uhr 6.3 0.0 5.0 91
20.04 - 03:40 Uhr 6.3 0.0 4.9 91
20.04 - 03:30 Uhr 6.3 0.0 4.9 91
20.04 - 03:20 Uhr 6.2 0.0 4.9 91
20.04 - 03:10 Uhr 6.1 0.0 4.9 92
20.04 - 03:00 Uhr 6.0 0.0 5.0 93
20.04 - 02:50 Uhr 5.8 0.0 4.8 93
20.04 - 02:40 Uhr 5.6 0.0 4.7 94
20.04 - 02:30 Uhr 5.5 0.0 4.6 94
20.04 - 02:20 Uhr 5.5 0.0 4.5 93
20.04 - 02:10 Uhr 5.4 0.0 4.3 93
20.04 - 02:00 Uhr 5.3 0.0 4.1 92
20.04 - 01:50 Uhr 5.3 0.0 3.9 91
20.04 - 01:40 Uhr 5.3 0.0 3.6 89
20.04 - 01:30 Uhr 5.3 0.0 3.5 88
20.04 - 01:20 Uhr 5.4 0.0 3.6 88
20.04 - 01:10 Uhr 5.4 0.0 3.5 87
20.04 - 01:00 Uhr 5.5 0.0 3.6 88
20.04 - 00:50 Uhr 5.6 0.0 3.8 88
20.04 - 00:40 Uhr 5.6 0.0 4.0 89
20.04 - 00:30 Uhr 5.6 0.0 4.1 90
20.04 - 00:20 Uhr 5.6 0.0 3.9 89
20.04 - 00:10 Uhr 5.6 0.0 4.0 90
20.04 - 00:00 Uhr 5.5 0.0 4.1 91
19.04 - 23:50 Uhr 5.5 0.0 4.0 90
19.04 - 23:40 Uhr 5.4 0.0 4.1 91
19.04 - 23:30 Uhr 5.3 0.0 4.0 91
19.04 - 23:20 Uhr 5.3 0.0 4.0 91
19.04 - 23:10 Uhr 5.2 0.0 4.0 92
19.04 - 23:00 Uhr 5.2 0.0 3.9 91
19.04 - 22:50 Uhr 5.1 0.0 3.6 90
19.04 - 22:40 Uhr 5.1 0.0 3.7 91
19.04 - 22:30 Uhr 5.1 0.0 3.6 90
19.04 - 22:20 Uhr 5.2 0.0 3.6 90
19.04 - 22:10 Uhr 5.3 0.0 3.6 89
19.04 - 22:00 Uhr 5.3 0.0 3.9 91
19.04 - 21:50 Uhr 5.3 0.0 4.1 92
19.04 - 21:40 Uhr 5.3 0.0 4.2 92
19.04 - 21:30 Uhr 5.3 0.0 4.2 92
19.04 - 21:20 Uhr 5.4 0.0 4.3 93
19.04 - 21:10 Uhr 5.5 0.0 4.4 93
19.04 - 21:00 Uhr 5.6 0.0 4.7 94
19.04 - 20:50 Uhr 5.7 0.0 4.8 94
19.04 - 20:40 Uhr 5.8 0.0 4.8 93
19.04 - 20:30 Uhr 5.9 0.1 5.0 94
19.04 - 20:20 Uhr 6.2 0.1 5.3 94
19.04 - 20:10 Uhr 6.5 0.1 5.7 95
19.04 - 20:00 Uhr 6.5 0.1 5.5 94
19.04 - 19:50 Uhr 6.8 0.0 5.6 92
19.04 - 19:40 Uhr 7.2 0.0 5.9 92
19.04 - 19:30 Uhr 7.5 0.0 6.2 91
19.04 - 19:20 Uhr 7.9 0.0 6.3 90
19.04 - 19:10 Uhr 8.5 0.0 6.9 89
19.04 - 19:00 Uhr 9.0 0.0 7.8 92
19.04 - 18:50 Uhr 9.2 0.0 7.9 92
19.04 - 18:40 Uhr 9.4 0.0 8.3 93
19.04 - 18:30 Uhr 9.5 0.0 8.3 92
19.04 - 18:20 Uhr 9.8 0.0 8.5 91
19.04 - 18:10 Uhr 10.1 0.0 8.8 92
19.04 - 18:00 Uhr 10.6 0.0 9.3 92
19.04 - 17:50 Uhr 10.8 0.0 10.0 95
19.04 - 17:40 Uhr 10.6 0.0 10.1 97
19.04 - 17:30 Uhr 10.6 0.1 10.1 97
19.04 - 17:20 Uhr 10.6 0.3 10.2 97
19.04 - 17:10 Uhr 10.6 0.2 10.0 96
19.04 - 17:00 Uhr 10.7 0.2 9.9 95
19.04 - 16:50 Uhr 10.8 0.4 9.9 94
19.04 - 16:40 Uhr 11.1 0.1 9.4 90
19.04 - 16:30 Uhr 11.8 0.0 10.1 90
19.04 - 16:20 Uhr 12.5 0.0 10.7 89
19.04 - 16:10 Uhr 12.4 0.0 10.7 89
19.04 - 16:00 Uhr 12.8 0.2 10.4 85
19.04 - 15:50 Uhr 13.6 0.0 10.3 80
19.04 - 15:40 Uhr 13.4 0.0 10.2 81
19.04 - 15:30 Uhr 13.1 0.6 10.3 83
19.04 - 15:20 Uhr 14.7 0.0 9.9 73
19.04 - 15:10 Uhr 15.6 0.0 9.5 67
19.04 - 15:00 Uhr 16.1 0.0 9.5 65
19.04 - 14:50 Uhr 16.5 0.0 9.2 62
19.04 - 14:40 Uhr 17.5 0.0 8.6 56
19.04 - 14:30 Uhr 17.8 0.0 8.4 54
19.04 - 14:20 Uhr 17.7 0.0 8.3 54
19.04 - 14:10 Uhr 17.5 0.0 8.6 56
19.04 - 14:00 Uhr 18.1 0.0 8.8 55
19.04 - 13:50 Uhr 18.5 0.0 9.6 56
19.04 - 13:40 Uhr 18.2 0.0 10.6 61
19.04 - 13:30 Uhr 17.3 0.0 9.6 61
19.04 - 13:20 Uhr 16.9 0.0 10.5 66
19.04 - 13:10 Uhr 16.7 0.0 10.9 69
19.04 - 13:00 Uhr 16.4 0.0 10.2 67
19.04 - 12:50 Uhr 16.4 0.0 10.5 68
19.04 - 12:40 Uhr 16.9 0.0 10.3 65
19.04 - 12:30 Uhr 17.2 0.0 10.0 63
19.04 - 12:20 Uhr 16.7 0.0 10.0 65
19.04 - 12:10 Uhr 16.9 0.0 10.6 66
19.04 - 12:00 Uhr 16.8 0.0 10.3 66
19.04 - 11:50 Uhr 16.4 0.0 10.2 67
19.04 - 11:40 Uhr 16.1 0.0 10.5 69
19.04 - 11:30 Uhr 16.3 0.0 10.7 69
19.04 - 11:20 Uhr 16.4 0.0 11.1 71
19.04 - 11:10 Uhr 15.7 0.0 10.8 72
19.04 - 11:00 Uhr 15.9 0.0 11.3 74
19.04 - 10:50 Uhr 15.8 0.0 11.1 73
19.04 - 10:40 Uhr 15.6 0.0 10.4 71
19.04 - 10:30 Uhr 15.6 0.0 10.5 72
19.04 - 10:20 Uhr 15.2 0.0 11.2 77
19.04 - 10:10 Uhr 14.9 0.0 11.2 79
19.04 - 10:00 Uhr 15.1 0.0 11.7 80
19.04 - 09:50 Uhr 14.2 0.0 11.2 82
19.04 - 09:40 Uhr 14.1 0.0 9.8 75
19.04 - 09:30 Uhr 13.9 0.0 10.5 80
19.04 - 09:20 Uhr 13.9 0.0 10.8 81
19.04 - 09:10 Uhr 14.0 0.0 10.6 80
19.04 - 09:00 Uhr 14.1 0.0 10.8 81
19.04 - 08:50 Uhr 14.2 0.0 12.0 87
19.04 - 08:40 Uhr 13.2 0.0 12.2 94
19.04 - 08:30 Uhr 12.8 0.0 11.9 94
19.04 - 08:20 Uhr 12.2 0.0 11.1 93
19.04 - 08:10 Uhr 12.1 0.0 11.2 94
19.04 - 08:00 Uhr 11.9 0.0 11.0 94

Daten: Quelle DWD